createdAt,value
2017-09-30T00:01:31.980Z,13.50
2017-09-30T00:03:58.371Z,13.37
2017-09-30T00:06:24.791Z,11.80
2017-09-30T00:08:51.211Z,11.93
2017-09-30T00:11:17.603Z,12.23
2017-09-30T00:13:44.015Z,11.50
2017-09-30T00:16:10.390Z,12.03
2017-09-30T00:18:36.790Z,12.80
2017-09-30T00:21:03.959Z,11.90
2017-09-30T00:23:30.380Z,10.83
2017-09-30T00:25:57.500Z,11.13
2017-09-30T00:28:23.938Z,12.87
2017-09-30T00:30:50.398Z,10.90
2017-09-30T00:33:17.519Z,13.50
2017-09-30T00:35:43.999Z,10.93
2017-09-30T00:38:10.423Z,19.20
2017-09-30T00:40:36.836Z,11.00
2017-09-30T00:43:04.107Z,14.47
2017-09-30T00:45:30.507Z,10.60
2017-09-30T00:47:56.908Z,10.23
2017-09-30T00:50:23.328Z,11.10
2017-09-30T00:52:50.672Z,11.23
2017-09-30T00:55:17.160Z,10.87
2017-09-30T00:57:43.600Z,16.43
2017-09-30T01:00:10.810Z,9.80
2017-09-30T01:02:37.232Z,10.27
2017-09-30T01:05:03.623Z,10.50
2017-09-30T01:07:30.060Z,11.00
2017-09-30T01:09:57.279Z,10.80
2017-09-30T01:12:25.411Z,10.90
2017-09-30T01:14:51.836Z,10.47
2017-09-30T01:17:18.254Z,9.67
2017-09-30T01:19:45.463Z,11.57
2017-09-30T01:22:11.939Z,11.30
2017-09-30T01:24:39.142Z,11.20
2017-09-30T01:27:05.607Z,11.10
2017-09-30T01:29:32.036Z,12.60
2017-09-30T01:31:58.484Z,11.27
2017-09-30T01:34:25.703Z,11.43
2017-09-30T01:36:52.136Z,13.60
2017-09-30T01:39:18.595Z,14.17
2017-09-30T01:41:45.028Z,11.03
2017-09-30T01:44:11.439Z,11.80
2017-09-30T01:46:37.884Z,12.50
2017-09-30T01:49:04.464Z,11.87
2017-09-30T01:51:30.909Z,13.70
2017-09-30T01:53:57.378Z,11.70
2017-09-30T01:56:23.840Z,12.07
2017-09-30T01:58:50.999Z,9.63
2017-09-30T02:01:18.232Z,10.77
2017-09-30T02:03:44.705Z,10.10
2017-09-30T02:06:11.138Z,11.90
2017-09-30T02:08:37.582Z,10.23
2017-09-30T02:11:04.036Z,10.33
2017-09-30T02:13:30.495Z,10.30
2017-09-30T02:15:56.936Z,11.83
2017-09-30T02:18:23.363Z,11.40
2017-09-30T02:20:49.807Z,11.47
2017-09-30T02:23:16.983Z,10.50
2017-09-30T02:25:43.364Z,11.00
2017-09-30T02:28:09.817Z,10.37
2017-09-30T02:30:37.009Z,11.17
2017-09-30T02:33:03.414Z,13.40
2017-09-30T02:35:30.631Z,11.63
2017-09-30T02:37:57.009Z,10.00
2017-09-30T02:40:23.410Z,11.73
2017-09-30T02:42:49.963Z,10.10
2017-09-30T02:45:16.380Z,11.80
2017-09-30T02:47:44.445Z,11.33
2017-09-30T02:50:10.878Z,15.40
2017-09-30T02:52:37.291Z,10.63
2017-09-30T02:55:03.704Z,12.77
2017-09-30T02:57:30.109Z,12.50
2017-09-30T02:59:56.543Z,9.90
2017-09-30T03:02:22.930Z,9.63
2017-09-30T03:04:49.357Z,10.63
2017-09-30T03:07:15.805Z,10.07
2017-09-30T03:09:42.340Z,10.20
2017-09-30T03:12:08.752Z,9.27
2017-09-30T03:14:35.151Z,22.70
2017-09-30T03:17:01.584Z,10.27
2017-09-30T03:19:28.007Z,10.90
2017-09-30T03:21:54.548Z,10.43
2017-09-30T03:24:20.961Z,11.10
2017-09-30T03:26:48.094Z,10.70
2017-09-30T03:29:14.490Z,13.67
2017-09-30T03:31:40.911Z,9.47
2017-09-30T03:34:07.366Z,10.23
2017-09-30T03:36:33.782Z,10.80
2017-09-30T03:39:00.170Z,9.00
2017-09-30T03:41:27.339Z,10.03
2017-09-30T03:43:53.716Z,10.07
2017-09-30T03:46:20.128Z,9.97
2017-09-30T03:48:46.563Z,10.40
2017-09-30T03:51:12.961Z,10.20
2017-09-30T03:53:40.142Z,10.13
2017-09-30T03:56:06.564Z,12.17
2017-09-30T03:58:32.974Z,11.93
2017-09-30T04:01:00.111Z,10.83
2017-09-30T04:03:27.232Z,10.30
2017-09-30T04:05:53.676Z,10.83
2017-09-30T04:08:20.111Z,11.30
2017-09-30T04:10:46.531Z,11.43
2017-09-30T04:13:12.930Z,11.50
2017-09-30T04:15:39.363Z,10.93
2017-09-30T04:18:05.823Z,10.77
2017-09-30T04:20:32.231Z,10.03
2017-09-30T04:22:58.648Z,10.30
2017-09-30T04:25:25.096Z,10.80
2017-09-30T04:27:51.510Z,9.30
2017-09-30T04:30:17.939Z,10.40
2017-09-30T04:32:45.066Z,9.87
2017-09-30T04:35:11.612Z,10.37
2017-09-30T04:37:38.031Z,11.47
2017-09-30T04:40:04.446Z,10.77
2017-09-30T04:42:31.611Z,11.93
2017-09-30T04:44:57.997Z,11.70
2017-09-30T04:47:24.387Z,12.40
2017-09-30T04:49:51.558Z,12.00
2017-09-30T04:52:17.953Z,12.73
2017-09-30T04:54:44.423Z,12.93
2017-09-30T04:57:11.591Z,14.10
2017-09-30T04:59:38.039Z,12.70
2017-09-30T05:02:04.895Z,11.50
2017-09-30T05:04:32.307Z,10.57
2017-09-30T05:06:58.757Z,11.00
2017-09-30T05:09:25.314Z,10.53
2017-09-30T05:11:52.625Z,11.63
2017-09-30T05:14:19.035Z,11.27
2017-09-30T05:16:45.413Z,12.03
2017-09-30T05:19:11.818Z,13.20
2017-09-30T05:21:38.215Z,11.03
2017-09-30T05:24:04.754Z,10.50
2017-09-30T05:26:31.227Z,11.30
2017-09-30T05:28:57.640Z,10.80
2017-09-30T05:31:24.778Z,11.57
2017-09-30T05:33:51.227Z,11.83
2017-09-30T05:36:18.383Z,10.93
2017-09-30T05:38:45.508Z,15.07
2017-09-30T05:41:12.029Z,11.20
2017-09-30T05:43:38.437Z,9.87
2017-09-30T05:46:04.910Z,11.10
2017-09-30T05:48:32.109Z,10.77
2017-09-30T05:50:58.523Z,10.07
2017-09-30T05:53:25.803Z,12.20
2017-09-30T05:55:52.190Z,11.20
2017-09-30T05:58:18.612Z,12.83
2017-09-30T06:00:45.069Z,12.30
2017-09-30T06:03:12.231Z,12.60
2017-09-30T06:05:38.660Z,13.57
2017-09-30T06:08:05.093Z,13.40
2017-09-30T06:10:31.526Z,15.13
2017-09-30T06:12:58.662Z,13.17
2017-09-30T06:15:25.846Z,14.57
2017-09-30T06:17:52.276Z,14.97
2017-09-30T06:20:18.687Z,11.87
2017-09-30T06:22:45.230Z,15.20
2017-09-30T06:25:11.646Z,12.17
2017-09-30T06:27:38.772Z,14.00
2017-09-30T06:30:05.203Z,12.23
2017-09-30T06:32:31.575Z,11.77
2017-09-30T06:34:57.998Z,13.07
2017-09-30T06:37:25.139Z,12.27
2017-09-30T06:39:52.279Z,12.20
2017-09-30T06:42:18.680Z,12.57
2017-09-30T06:44:45.948Z,12.53
2017-09-30T06:47:12.366Z,11.53
2017-09-30T06:49:38.755Z,12.00
2017-09-30T06:52:05.299Z,14.83
2017-09-30T06:54:32.092Z,13.17
2017-09-30T06:56:58.728Z,13.43
2017-09-30T06:59:25.111Z,11.60
2017-09-30T07:01:51.663Z,15.30
2017-09-30T07:04:18.051Z,13.63
2017-09-30T07:06:44.464Z,13.87
2017-09-30T07:09:10.902Z,13.77
2017-09-30T07:11:37.304Z,12.77
2017-09-30T07:14:03.691Z,12.23
2017-09-30T07:16:30.850Z,12.50
2017-09-30T07:18:57.984Z,11.80
2017-09-30T07:21:24.443Z,10.73
2017-09-30T07:23:50.927Z,10.80
2017-09-30T07:26:17.320Z,10.60
2017-09-30T07:28:43.743Z,10.43
2017-09-30T07:31:10.199Z,10.53
2017-09-30T07:33:36.595Z,9.93
2017-09-30T07:36:03.769Z,10.80
2017-09-30T07:38:30.172Z,10.63
2017-09-30T07:40:57.332Z,10.77
2017-09-30T07:43:23.753Z,10.30
2017-09-30T07:45:51.008Z,11.73
2017-09-30T07:48:18.154Z,12.50
2017-09-30T07:50:45.288Z,12.43
2017-09-30T07:53:11.687Z,11.90
2017-09-30T07:55:38.091Z,10.77
2017-09-30T07:58:04.516Z,10.93
2017-09-30T08:00:30.960Z,13.23
2017-09-30T08:02:57.343Z,11.47
2017-09-30T08:05:23.745Z,12.00
2017-09-30T08:07:50.145Z,10.30
2017-09-30T08:10:16.574Z,11.40
2017-09-30T08:12:43.828Z,10.73
2017-09-30T08:15:10.967Z,10.37
2017-09-30T08:17:38.100Z,10.20
2017-09-30T08:20:04.578Z,10.13
2017-09-30T08:22:30.978Z,13.93
2017-09-30T08:24:58.135Z,11.60
2017-09-30T08:27:25.246Z,10.20
2017-09-30T08:29:51.656Z,9.77
2017-09-30T08:32:18.063Z,9.77
2017-09-30T08:34:44.471Z,10.43
2017-09-30T08:37:11.715Z,10.23
2017-09-30T08:39:38.863Z,8.80
2017-09-30T08:42:05.295Z,9.87
2017-09-30T08:44:31.727Z,11.13
2017-09-30T08:46:58.143Z,10.93
2017-09-30T08:49:24.579Z,9.33
2017-09-30T08:51:51.015Z,9.03
2017-09-30T08:54:17.460Z,9.33
2017-09-30T08:56:43.927Z,8.20
2017-09-30T08:59:10.312Z,8.93
2017-09-30T09:01:36.748Z,10.20
2017-09-30T09:04:03.158Z,11.27
2017-09-30T09:06:29.555Z,9.73
2017-09-30T09:08:55.987Z,10.70
2017-09-30T09:11:23.120Z,9.30
2017-09-30T09:13:50.287Z,8.50
2017-09-30T09:16:16.675Z,8.93
2017-09-30T09:18:43.052Z,9.30
2017-09-30T09:21:09.451Z,10.23
2017-09-30T09:23:35.877Z,10.40
2017-09-30T09:26:02.258Z,8.90
2017-09-30T09:28:28.707Z,7.87
2017-09-30T09:30:55.108Z,8.13
2017-09-30T09:33:22.245Z,10.67
2017-09-30T09:35:49.402Z,8.80
2017-09-30T09:38:16.531Z,8.50
2017-09-30T09:40:42.998Z,7.83
2017-09-30T09:43:09.392Z,9.20
2017-09-30T09:45:35.791Z,8.13
2017-09-30T09:48:02.207Z,7.67
2017-09-30T09:50:28.611Z,8.00
2017-09-30T09:52:55.734Z,8.00
2017-09-30T09:55:22.156Z,7.00
2017-09-30T09:57:48.591Z,8.17
2017-09-30T10:00:15.072Z,9.13
2017-09-30T10:02:42.191Z,7.30
2017-09-30T10:05:08.742Z,9.67
2017-09-30T10:07:35.928Z,8.10
2017-09-30T10:10:03.810Z,8.00
2017-09-30T10:12:30.230Z,8.93
2017-09-30T10:14:56.630Z,10.30
2017-09-30T10:17:23.771Z,8.00
2017-09-30T10:19:50.977Z,8.60
2017-09-30T10:22:17.398Z,7.53
2017-09-30T10:24:43.842Z,9.23
2017-09-30T10:27:10.338Z,9.60
2017-09-30T10:29:37.509Z,9.80
2017-09-30T10:32:03.939Z,9.27
2017-09-30T10:34:30.347Z,8.40
2017-09-30T10:36:57.462Z,7.73
2017-09-30T10:39:23.836Z,7.67
2017-09-30T10:41:51.015Z,9.17
2017-09-30T10:44:17.463Z,8.27
2017-09-30T10:46:43.943Z,8.30
2017-09-30T10:49:10.456Z,7.00
2017-09-30T10:51:37.630Z,8.70
2017-09-30T10:54:04.760Z,8.47
2017-09-30T10:56:31.163Z,8.90
2017-09-30T10:58:57.531Z,7.97
2017-09-30T11:01:23.947Z,8.30
2017-09-30T11:03:50.490Z,7.97
2017-09-30T11:06:16.887Z,7.33
2017-09-30T11:08:43.359Z,9.03
2017-09-30T11:11:09.812Z,9.07
2017-09-30T11:13:37.019Z,7.07
2017-09-30T11:16:03.456Z,7.90
2017-09-30T11:18:29.839Z,7.87
2017-09-30T11:20:56.980Z,9.20
2017-09-30T11:23:24.118Z,8.30
2017-09-30T11:25:50.522Z,7.80
2017-09-30T11:28:16.983Z,7.60
2017-09-30T11:30:43.390Z,7.40
2017-09-30T11:33:09.790Z,8.20
2017-09-30T11:35:36.342Z,8.13
2017-09-30T11:38:02.859Z,8.10
2017-09-30T11:40:29.290Z,8.10
2017-09-30T11:42:55.712Z,9.23
2017-09-30T11:45:22.104Z,9.33
2017-09-30T11:47:48.504Z,8.07
2017-09-30T11:50:14.927Z,7.90
2017-09-30T11:52:41.314Z,8.50
2017-09-30T11:55:07.728Z,9.57
2017-09-30T11:57:34.095Z,8.90
2017-09-30T12:00:01.243Z,8.10
2017-09-30T12:02:27.663Z,8.80
2017-09-30T12:04:54.781Z,9.57
2017-09-30T12:07:21.217Z,8.50
2017-09-30T12:09:47.658Z,7.93
2017-09-30T12:12:14.190Z,8.07
2017-09-30T12:14:40.612Z,8.90
2017-09-30T12:17:07.006Z,8.67
2017-09-30T12:19:33.532Z,9.73
2017-09-30T12:22:00.666Z,8.63
2017-09-30T12:24:27.806Z,8.57
2017-09-30T12:26:54.221Z,8.67
2017-09-30T12:29:20.660Z,7.60
2017-09-30T12:31:47.168Z,8.40
2017-09-30T12:34:13.733Z,9.30
2017-09-30T12:36:40.199Z,8.60
2017-09-30T12:39:06.628Z,7.90
2017-09-30T12:41:33.944Z,9.30
2017-09-30T12:44:01.100Z,9.53
2017-09-30T12:46:27.527Z,7.67
2017-09-30T12:48:54.042Z,8.53
2017-09-30T12:51:20.428Z,8.13
2017-09-30T12:53:47.539Z,9.33
2017-09-30T12:56:13.958Z,8.27
2017-09-30T12:58:40.450Z,9.67
2017-09-30T13:01:07.210Z,7.70
2017-09-30T13:03:33.802Z,8.50
2017-09-30T13:06:01.015Z,11.70
2017-09-30T13:08:27.424Z,10.23
2017-09-30T13:10:53.859Z,9.47
2017-09-30T13:13:20.251Z,10.00
2017-09-30T13:15:46.791Z,8.70
2017-09-30T13:18:13.185Z,9.50
2017-09-30T13:20:39.733Z,9.90
2017-09-30T13:23:06.944Z,10.37
2017-09-30T13:25:33.330Z,10.03
2017-09-30T13:27:59.836Z,8.90
2017-09-30T13:30:26.262Z,9.10
2017-09-30T13:32:52.647Z,9.57
2017-09-30T13:35:19.835Z,10.70
2017-09-30T13:37:46.247Z,8.60
2017-09-30T13:40:13.504Z,10.07
2017-09-30T13:42:39.891Z,9.17
2017-09-30T13:45:07.426Z,9.33
2017-09-30T13:47:34.746Z,9.90
2017-09-30T13:50:01.995Z,9.17
2017-09-30T13:52:28.379Z,8.43
2017-09-30T13:54:54.975Z,8.70
2017-09-30T13:57:21.402Z,9.83
2017-09-30T13:59:47.807Z,8.67
2017-09-30T14:02:14.248Z,9.17
2017-09-30T14:04:41.404Z,8.30
2017-09-30T14:07:08.559Z,10.40
2017-09-30T14:09:35.737Z,9.53
2017-09-30T14:12:02.172Z,9.00
2017-09-30T14:14:28.694Z,9.27
2017-09-30T14:16:55.090Z,10.83
2017-09-30T14:19:21.531Z,9.33
2017-09-30T14:21:48.001Z,11.67
2017-09-30T14:24:14.414Z,9.50
2017-09-30T14:26:41.663Z,8.40
2017-09-30T14:29:08.111Z,11.50
2017-09-30T14:31:35.252Z,9.70
2017-09-30T14:34:01.671Z,9.70
2017-09-30T14:36:28.831Z,8.77
2017-09-30T14:38:55.982Z,9.50
2017-09-30T14:41:23.203Z,10.47
2017-09-30T14:43:50.344Z,8.60
2017-09-30T14:46:16.768Z,9.83
2017-09-30T14:48:43.191Z,12.73
2017-09-30T14:51:09.661Z,9.37
2017-09-30T14:53:36.055Z,9.70
2017-09-30T14:56:02.484Z,9.77
2017-09-30T14:58:29.027Z,11.33
2017-09-30T15:00:55.449Z,8.57
2017-09-30T15:03:21.865Z,9.20
2017-09-30T15:05:48.280Z,9.00
2017-09-30T15:08:15.422Z,14.30
2017-09-30T15:10:42.560Z,8.83
2017-09-30T15:13:08.971Z,9.13
2017-09-30T15:15:35.380Z,10.07
2017-09-30T15:18:01.906Z,8.93
2017-09-30T15:20:28.292Z,8.83
2017-09-30T15:22:54.672Z,12.73
2017-09-30T15:25:21.115Z,8.80
2017-09-30T15:27:47.499Z,9.00
2017-09-30T15:30:14.664Z,9.87
2017-09-30T15:32:41.055Z,9.93
2017-09-30T15:35:07.447Z,10.97
2017-09-30T15:37:33.867Z,10.70
2017-09-30T15:40:00.264Z,9.50
2017-09-30T15:42:26.688Z,9.60
2017-09-30T15:44:53.135Z,8.57
2017-09-30T15:47:19.631Z,10.63
2017-09-30T15:49:46.016Z,9.63
2017-09-30T15:52:13.137Z,10.13
2017-09-30T15:54:39.595Z,8.30
2017-09-30T15:57:06.039Z,10.73
2017-09-30T15:59:33.183Z,9.03
2017-09-30T16:02:00.395Z,9.47
2017-09-30T16:04:26.930Z,11.63
2017-09-30T16:06:53.299Z,9.70
2017-09-30T16:09:20.427Z,9.40
2017-09-30T16:11:46.846Z,9.30
2017-09-30T16:14:13.242Z,9.13
2017-09-30T16:16:39.679Z,9.20
2017-09-30T16:19:06.095Z,9.70
2017-09-30T16:21:32.623Z,10.10
2017-09-30T16:23:59.015Z,9.00
2017-09-30T16:26:25.419Z,10.40
2017-09-30T16:28:51.840Z,10.50
2017-09-30T16:31:18.231Z,8.93
2017-09-30T16:33:45.398Z,8.93
2017-09-30T16:36:12.510Z,9.50
2017-09-30T16:38:39.202Z,9.63
2017-09-30T16:41:05.658Z,9.20
2017-09-30T16:43:32.781Z,10.30
2017-09-30T16:45:59.177Z,12.40
2017-09-30T16:48:25.603Z,10.33
2017-09-30T16:50:52.007Z,8.77
2017-09-30T16:53:19.147Z,11.50
2017-09-30T16:55:45.707Z,10.93
2017-09-30T16:58:12.099Z,11.17
2017-09-30T17:00:38.488Z,12.57
2017-09-30T17:03:04.904Z,11.73
2017-09-30T17:05:31.347Z,11.33
2017-09-30T17:07:57.755Z,13.80
2017-09-30T17:10:24.231Z,12.07
2017-09-30T17:12:51.568Z,12.07
2017-09-30T17:15:18.007Z,11.60
2017-09-30T17:17:44.632Z,10.53
2017-09-30T17:20:11.811Z,12.43
2017-09-30T17:22:39.111Z,10.70
2017-09-30T17:25:05.656Z,10.90
2017-09-30T17:27:32.067Z,11.83
2017-09-30T17:29:58.492Z,10.90
2017-09-30T17:32:24.919Z,12.03
2017-09-30T17:34:51.307Z,13.13
2017-09-30T17:37:17.732Z,12.47
2017-09-30T17:39:44.121Z,13.93
2017-09-30T17:42:10.553Z,12.37
2017-09-30T17:44:36.960Z,11.53
2017-09-30T17:47:04.084Z,12.80
2017-09-30T17:49:30.596Z,13.53
2017-09-30T17:51:57.002Z,12.50
2017-09-30T17:54:23.398Z,12.97
2017-09-30T17:56:49.795Z,14.10
2017-09-30T17:59:16.182Z,15.03
2017-09-30T18:01:43.332Z,17.70
2017-09-30T18:04:10.459Z,18.07
2017-09-30T18:06:36.871Z,17.97
2017-09-30T18:09:03.446Z,19.20
2017-09-30T19:33:27.003Z,15.03
2017-09-30T19:35:53.395Z,14.97
2017-09-30T19:38:20.613Z,15.70
2017-09-30T19:40:47.148Z,18.17
2017-09-30T19:43:13.543Z,12.80
2017-09-30T19:45:39.932Z,14.20
2017-09-30T19:48:06.338Z,14.80
2017-09-30T19:50:32.727Z,14.30
2017-09-30T19:52:59.182Z,14.50
2017-09-30T19:55:25.568Z,13.07
2017-09-30T19:57:52.711Z,15.63
2017-09-30T20:00:19.249Z,13.67
2017-09-30T20:02:45.651Z,14.67
2017-09-30T20:05:12.044Z,13.43
2017-09-30T20:07:38.454Z,15.43
2017-09-30T20:10:05.703Z,13.80
2017-09-30T20:12:32.084Z,14.00
2017-09-30T20:14:58.489Z,14.83
2017-09-30T20:17:25.028Z,14.40
2017-09-30T20:19:51.428Z,13.70
2017-09-30T20:22:18.583Z,15.37
2017-09-30T20:24:45.730Z,14.60
2017-09-30T20:27:12.116Z,13.87
2017-09-30T20:29:38.616Z,15.10
2017-09-30T20:32:05.007Z,14.83
2017-09-30T20:34:31.404Z,15.70
2017-09-30T20:36:57.855Z,15.87
2017-09-30T20:39:24.284Z,17.13
2017-09-30T20:41:50.707Z,13.97
2017-09-30T20:44:17.088Z,13.90
2017-09-30T20:46:43.499Z,15.33
2017-09-30T20:49:10.616Z,16.77
2017-09-30T20:51:37.043Z,14.50
2017-09-30T20:54:03.439Z,14.30
2017-09-30T20:56:30.600Z,14.00
2017-09-30T20:58:57.719Z,16.03
2017-09-30T21:01:24.139Z,14.17
2017-09-30T21:03:50.576Z,14.57
2017-09-30T21:06:17.020Z,13.10
2017-09-30T21:08:43.425Z,14.30
2017-09-30T21:11:09.807Z,15.70
2017-09-30T21:13:36.976Z,13.57
2017-09-30T21:16:03.801Z,14.93
2017-09-30T21:18:30.397Z,14.60
2017-09-30T21:20:56.798Z,15.07
2017-09-30T21:23:23.228Z,13.27
2017-09-30T21:25:49.618Z,12.80
2017-09-30T21:28:16.036Z,13.50
2017-09-30T21:30:42.460Z,17.77
2017-09-30T21:33:08.876Z,13.57
2017-09-30T21:35:35.291Z,13.33
2017-09-30T21:38:01.719Z,13.50
2017-09-30T21:40:28.147Z,16.67
2017-09-30T21:42:54.555Z,13.27
2017-09-30T21:45:21.707Z,14.03
2017-09-30T21:47:48.868Z,14.87
2017-09-30T21:50:16.031Z,13.37
2017-09-30T21:52:42.459Z,13.90
2017-09-30T21:55:08.840Z,13.60
2017-09-30T21:57:36.093Z,13.67
2017-09-30T22:00:02.531Z,13.90
2017-09-30T22:02:28.947Z,13.60
2017-09-30T22:04:55.356Z,17.33
2017-09-30T22:07:21.745Z,12.93
2017-09-30T22:09:48.122Z,12.90
2017-09-30T22:12:14.554Z,12.90
2017-09-30T22:14:40.938Z,11.93
2017-09-30T22:17:07.475Z,15.23
2017-09-30T22:19:33.863Z,13.00
2017-09-30T22:22:00.259Z,13.77
2017-09-30T22:24:27.422Z,13.73
2017-09-30T22:26:54.571Z,13.53
2017-09-30T22:29:20.968Z,13.60
2017-09-30T22:31:47.492Z,13.77
2017-09-30T22:34:13.882Z,15.30
2017-09-30T22:36:40.266Z,12.57
2017-09-30T22:39:06.675Z,12.67
2017-09-30T22:41:33.052Z,14.30
2017-09-30T22:44:00.210Z,14.13
2017-09-30T22:46:27.334Z,14.37
2017-09-30T22:48:53.899Z,13.10
2017-09-30T22:51:20.295Z,14.03
2017-09-30T22:53:46.674Z,14.87
2017-09-30T22:56:13.087Z,14.43
2017-09-30T22:58:40.252Z,13.60
2017-09-30T23:01:06.659Z,13.50
2017-09-30T23:03:33.112Z,14.53
2017-09-30T23:05:59.584Z,16.30
2017-09-30T23:08:25.964Z,14.23
2017-09-30T23:10:53.155Z,14.70
2017-09-30T23:13:19.566Z,13.60
2017-09-30T23:15:45.983Z,13.57
2017-09-30T23:18:13.106Z,13.90
2017-09-30T23:20:39.515Z,13.70
2017-09-30T23:23:05.900Z,13.93
2017-09-30T23:25:33.144Z,14.20
2017-09-30T23:28:00.269Z,13.77
2017-09-30T23:30:26.722Z,13.83
2017-09-30T23:32:53.994Z,13.53
2017-09-30T23:35:21.137Z,14.43
2017-09-30T23:37:48.255Z,13.30
2017-09-30T23:40:14.682Z,13.47
2017-09-30T23:42:41.075Z,14.60
2017-09-30T23:45:07.598Z,15.17
2017-09-30T23:47:33.982Z,13.60
2017-09-30T23:50:01.092Z,13.67
2017-09-30T23:52:27.510Z,13.07
2017-09-30T23:54:53.887Z,14.33
2017-09-30T23:57:20.395Z,14.63
2017-09-30T23:59:46.790Z,15.50
